Time;durP1;ratioP1;P1;durP2;ratioP2;P2;SDS_P1;SDS_P2;PMS_P1;PMS_P2;Temp;Humidity;BMP_temperature;BMP_pressure;BME280_temperature;BME280_humidity;BME280_pressure;Samples;Min_cycle;Max_cycle;Signal;HPM_P1;HPM_P2
2022/10/23 00:01:25;;;;;;;7.73;4.67;;;;;;;;;;5072920;28;20549;-55
2022/10/23 00:03:52;;;;;;;5.77;5.37;;;;;;;;;;5072892;28;20455;-55
2022/10/23 00:06:20;;;;;;;5.57;5.07;;;;;;;;;;5072572;28;20887;-51
2022/10/23 00:08:47;;;;;;;5.47;5.07;;;;;;;;;;5072632;28;20459;-53
2022/10/23 00:11:15;;;;;;;6.53;5.93;;;;;;;;;;5072838;28;20551;-50
2022/10/23 00:13:42;;;;;;;5.90;5.40;;;;;;;;;;5072777;28;20450;-51
2022/10/23 00:16:09;;;;;;;6.63;5.63;;;;;;;;;;5072744;28;20447;-52
2022/10/23 00:18:38;;;;;;;7.30;5.20;;;;;;;;;;5072756;28;20799;-52
2022/10/23 00:21:05;;;;;;;9.33;5.60;;;;;;;;;;5072588;28;20532;-50
2022/10/23 00:23:33;;;;;;;5.57;5.00;;;;;;;;;;5072504;28;20503;-51
2022/10/23 00:25:59;;;;;;;5.83;5.30;;;;;;;;;;5072733;28;20490;-51
2022/10/23 00:28:26;;;;;;;6.00;5.40;;;;;;;;;;5072622;28;20470;-53
2022/10/23 00:30:53;;;;;;;8.60;6.25;;;;;;;;;;5072953;28;20537;-54
2022/10/23 00:33:20;;;;;;;6.70;6.10;;;;;;;;;;5072511;28;20246;-54
2022/10/23 00:35:48;;;;;;;8.83;6.30;;;;;;;;;;5072361;28;20917;-52
2022/10/23 00:38:15;;;;;;;7.07;6.37;;;;;;;;;;5072411;28;20554;-52
2022/10/23 00:40:43;;;;;;;7.30;6.70;;;;;;;;;;5072803;28;20484;-53
2022/10/23 00:43:16;;;;;;;6.87;6.17;;;;;;;;;;5072554;28;20500;-51
2022/10/23 00:45:43;;;;;;;7.23;6.43;;;;;;;;;;5072409;28;20526;-51
2022/10/23 00:48:10;;;;;;;6.80;6.20;;;;;;;;;;5072162;28;20475;-53
2022/10/23 00:50:37;;;;;;;6.90;6.30;;;;;;;;;;5072306;28;20443;-55
2022/10/23 00:53:06;;;;;;;7.43;6.30;;;;;;;;;;5072475;28;20447;-54
2022/10/23 00:55:33;;;;;;;8.13;6.93;;;;;;;;;;5072471;28;20320;-52
2022/10/23 00:58:00;;;;;;;6.60;6.00;;;;;;;;;;5072447;28;20449;-55
2022/10/23 01:00:28;;;;;;;7.80;5.80;;;;;;;;;;5072403;28;20454;-55
2022/10/23 01:02:56;;;;;;;6.23;5.73;;;;;;;;;;5075987;28;20506;-51
2022/10/23 01:05:26;;;;;;;9.80;6.20;;;;;;;;;;5075881;28;20542;-53
2022/10/23 01:07:56;;;;;;;9.23;6.53;;;;;;;;;;5076000;28;20481;-53
2022/10/23 01:10:28;;;;;;;7.97;6.40;;;;;;;;;;5075926;28;20538;-55
2022/10/23 01:12:57;;;;;;;6.07;5.57;;;;;;;;;;5075910;28;20542;-53
2022/10/23 01:15:27;;;;;;;6.07;5.57;;;;;;;;;;5075695;28;20590;-56
2022/10/23 01:17:57;;;;;;;6.73;6.03;;;;;;;;;;5075890;28;20621;-54
2022/10/23 01:20:30;;;;;;;6.60;6.00;;;;;;;;;;5075929;28;20542;-55
2022/10/23 01:23:23;;;;;;;6.15;5.75;;;;;;;;;;5075823;28;20538;-55
2022/10/23 01:25:59;;;;;;;6.63;5.77;;;;;;;;;;5075583;28;20204;-54
2022/10/23 01:28:30;;;;;;;6.50;5.70;;;;;;;;;;5075753;28;20855;-56
2022/10/23 01:30:58;;;;;;;6.83;6.03;;;;;;;;;;5075656;28;20538;-54
2022/10/23 01:33:29;;;;;;;6.32;5.70;;;;;;;;;;5075578;28;20443;-56
2022/10/23 01:36:00;;;;;;;5.70;5.20;;;;;;;;;;5075379;28;20212;-56
2022/10/23 01:38:29;;;;;;;6.10;5.50;;;;;;;;;;5075864;28;20862;-56
2022/10/23 01:41:01;;;;;;;7.30;5.80;;;;;;;;;;5075491;28;20486;-54
2022/10/23 01:43:30;;;;;;;5.37;4.97;;;;;;;;;;5075548;28;20486;-54
2022/10/23 01:46:00;;;;;;;6.07;5.20;;;;;;;;;;5075302;28;20542;-54
2022/10/23 01:48:28;;;;;;;6.85;5.70;;;;;;;;;;5075044;28;20481;-55
2022/10/23 01:50:57;;;;;;;8.03;5.23;;;;;;;;;;5075024;28;20616;-55
2022/10/23 01:53:26;;;;;;;5.83;5.23;;;;;;;;;;5075273;28;20447;-52
2022/10/23 01:55:54;;;;;;;5.77;5.23;;;;;;;;;;5075063;28;20515;-50
2022/10/23 01:58:22;;;;;;;5.73;5.33;;;;;;;;;;5075137;28;20563;-54
2022/10/23 02:00:51;;;;;;;8.53;6.20;;;;;;;;;;5075077;28;21055;-51
2022/10/23 02:03:18;;;;;;;6.80;6.20;;;;;;;;;;5074832;28;20448;-51
2022/10/23 02:05:45;;;;;;;7.60;5.20;;;;;;;;;;5075052;28;20451;-53
2022/10/23 02:08:12;;;;;;;6.07;5.60;;;;;;;;;;5075025;28;20487;-52
2022/10/23 02:10:42;;;;;;;4.93;4.63;;;;;;;;;;5074959;28;20814;-53
2022/10/23 02:13:11;;;;;;;5.60;5.17;;;;;;;;;;5074056;28;20737;-52
2022/10/23 02:15:40;;;;;;;7.50;5.53;;;;;;;;;;5074642;28;20562;-54
2022/10/23 02:18:12;;;;;;;5.73;5.17;;;;;;;;;;5074569;28;20479;-55
2022/10/23 02:20:42;;;;;;;5.50;5.07;;;;;;;;;;5074899;28;20965;-55
2022/10/23 02:23:15;;;;;;;6.60;6.10;;;;;;;;;;5074736;28;20538;-53
2022/10/23 02:25:46;;;;;;;5.97;5.00;;;;;;;;;;5074620;28;20788;-55
2022/10/23 02:28:15;;;;;;;5.83;5.33;;;;;;;;;;5074487;28;20440;-56
2022/10/23 02:30:44;;;;;;;7.13;5.72;;;;;;;;;;5074392;28;20788;-53
2022/10/23 02:33:13;;;;;;;5.40;4.93;;;;;;;;;;5074557;28;20276;-54
2022/10/23 02:35:42;;;;;;;6.53;5.80;;;;;;;;;;5074112;28;21020;-51
2022/10/23 02:38:24;;;;;;;6.07;5.30;;;;;;;;;;5074396;28;20487;-52
2022/10/23 02:40:52;;;;;;;6.50;5.03;;;;;;;;;;5074015;28;20443;-54
2022/10/23 02:43:22;;;;;;;5.70;5.20;;;;;;;;;;5074404;28;20443;-55
2022/10/23 02:45:52;;;;;;;6.30;5.17;;;;;;;;;;5074189;28;20451;-55
2022/10/23 02:48:23;;;;;;;5.70;5.20;;;;;;;;;;5074101;28;20478;-57
2022/10/23 02:50:52;;;;;;;6.50;5.83;;;;;;;;;;5074133;28;20449;-51
2022/10/23 02:53:21;;;;;;;5.70;5.30;;;;;;;;;;5073968;28;20534;-56
2022/10/23 02:55:54;;;;;;;9.63;5.53;;;;;;;;;;5073999;28;20994;-55
2022/10/23 02:58:24;;;;;;;6.20;5.60;;;;;;;;;;5074344;28;20538;-56
2022/10/23 03:00:54;;;;;;;6.10;5.60;;;;;;;;;;5074222;28;20447;-55
2022/10/23 03:03:25;;;;;;;6.37;5.77;;;;;;;;;;5073798;28;20447;-56
2022/10/23 03:05:52;;;;;;;5.50;5.00;;;;;;;;;;5073676;28;20542;-53
2022/10/23 03:08:19;;;;;;;5.23;4.73;;;;;;;;;;5073844;28;20924;-55
2022/10/23 03:10:45;;;;;;;8.80;5.90;;;;;;;;;;5073699;28;20530;-55
2022/10/23 03:13:13;;;;;;;5.47;5.03;;;;;;;;;;5073510;28;21112;-51
2022/10/23 03:15:40;;;;;;;7.60;5.40;;;;;;;;;;5073460;28;20209;-56
2022/10/23 03:18:06;;;;;;;5.25;4.75;;;;;;;;;;5073512;28;20576;-55
2022/10/23 03:20:35;;;;;;;5.47;5.03;;;;;;;;;;5073338;28;20213;-53
2022/10/23 03:23:02;;;;;;;5.80;5.40;;;;;;;;;;5073579;28;20479;-52
2022/10/23 03:25:28;;;;;;;6.43;5.87;;;;;;;;;;5073331;28;20455;-51
2022/10/23 03:27:55;;;;;;;7.40;6.70;;;;;;;;;;5073455;28;20447;-56
2022/10/23 03:30:22;;;;;;;7.63;7.00;;;;;;;;;;5073334;28;20547;-56
2022/10/23 03:32:49;;;;;;;8.80;6.30;;;;;;;;;;5073285;28;20869;-55
2022/10/23 03:35:16;;;;;;;6.83;6.23;;;;;;;;;;5073010;28;21068;-56
2022/10/23 03:37:44;;;;;;;8.27;7.43;;;;;;;;;;5073295;28;20804;-59
2022/10/23 03:40:11;;;;;;;7.37;6.57;;;;;;;;;;5073313;28;20542;-54
2022/10/23 03:42:38;;;;;;;10.02;6.50;;;;;;;;;;5073153;28;20526;-55
2022/10/23 03:45:06;;;;;;;6.27;5.67;;;;;;;;;;5073249;28;20566;-54
2022/10/23 03:47:34;;;;;;;7.27;6.60;;;;;;;;;;5072871;28;20899;-56
2022/10/23 03:50:01;;;;;;;7.10;5.70;;;;;;;;;;5073163;28;20447;-56
2022/10/23 03:52:28;;;;;;;6.50;5.90;;;;;;;;;;5072851;28;20970;-56
2022/10/23 03:54:56;;;;;;;7.00;6.27;;;;;;;;;;5072956;28;20491;-54
2022/10/23 03:57:23;;;;;;;6.43;5.83;;;;;;;;;;5073009;28;20538;-56
2022/10/23 03:59:51;;;;;;;10.13;5.97;;;;;;;;;;5073041;28;20462;-55
2022/10/23 04:02:18;;;;;;;6.40;5.90;;;;;;;;;;5072866;28;20535;-54
2022/10/23 04:04:45;;;;;;;5.33;4.83;;;;;;;;;;5073051;28;20443;-56
2022/10/23 04:07:12;;;;;;;6.33;5.73;;;;;;;;;;5073240;28;20447;-55
2022/10/23 04:09:39;;;;;;;8.00;5.37;;;;;;;;;;5073046;28;20448;-54
2022/10/23 04:12:08;;;;;;;5.80;5.40;;;;;;;;;;5073399;28;20538;-56
2022/10/23 04:14:35;;;;;;;6.67;5.77;;;;;;;;;;5073117;28;20447;-56
2022/10/23 04:17:01;;;;;;;6.53;6.03;;;;;;;;;;5072885;28;21005;-56
2022/10/23 04:19:28;;;;;;;6.20;5.80;;;;;;;;;;5072870;28;20482;-56
2022/10/23 04:21:56;;;;;;;7.87;5.20;;;;;;;;;;5072828;28;20546;-55
2022/10/23 04:24:23;;;;;;;5.80;5.40;;;;;;;;;;5072749;28;20455;-56
2022/10/23 04:26:50;;;;;;;9.33;5.63;;;;;;;;;;5072623;28;20538;-56
2022/10/23 04:29:21;;;;;;;6.20;5.67;;;;;;;;;;5072503;28;20477;-55
2022/10/23 04:31:48;;;;;;;5.43;4.93;;;;;;;;;;5072791;28;20451;-56
2022/10/23 04:34:15;;;;;;;7.40;5.90;;;;;;;;;;5072676;28;20540;-56
2022/10/23 04:36:42;;;;;;;5.93;5.50;;;;;;;;;;5074737;28;20489;-56
2022/10/23 04:39:09;;;;;;;6.10;5.50;;;;;;;;;;5076634;28;20494;-54
2022/10/23 04:41:37;;;;;;;7.07;6.37;;;;;;;;;;5076715;28;20455;-56
2022/10/23 04:44:04;;;;;;;6.47;5.93;;;;;;;;;;5076461;28;20527;-60
2022/10/23 04:46:32;;;;;;;5.60;5.10;;;;;;;;;;5076557;28;20192;-55
2022/10/23 04:48:59;;;;;;;5.90;5.43;;;;;;;;;;5076222;28;20475;-54
2022/10/23 04:51:26;;;;;;;5.47;5.07;;;;;;;;;;5076343;28;20498;-54
2022/10/23 04:53:53;;;;;;;5.57;5.20;;;;;;;;;;5076332;28;20901;-55
2022/10/23 04:56:20;;;;;;;5.75;5.25;;;;;;;;;;5076140;28;20483;-52
2022/10/23 04:58:47;;;;;;;5.40;5.10;;;;;;;;;;5076369;28;20280;-55
2022/10/23 05:01:14;;;;;;;6.97;6.43;;;;;;;;;;5076320;28;20276;-56
2022/10/23 05:03:44;;;;;;;6.23;5.83;;;;;;;;;;5076158;28;20454;-55
2022/10/23 05:06:11;;;;;;;6.53;5.80;;;;;;;;;;5076039;28;20893;-56
2022/10/23 05:08:37;;;;;;;6.60;5.90;;;;;;;;;;5076004;28;20450;-55
2022/10/23 05:11:05;;;;;;;5.77;5.37;;;;;;;;;;5076370;28;20449;-55
2022/10/23 05:13:31;;;;;;;6.15;5.68;;;;;;;;;;5076057;28;20447;-54
2022/10/23 05:15:59;;;;;;;6.33;5.80;;;;;;;;;;5075826;28;20302;-56
2022/10/23 05:18:27;;;;;;;5.80;5.00;;;;;;;;;;5075973;28;20459;-56
2022/10/23 05:20:59;;;;;;;6.97;6.33;;;;;;;;;;5075800;28;20780;-52
2022/10/23 05:23:27;;;;;;;11.50;5.70;;;;;;;;;;5075662;28;20451;-54
2022/10/23 05:25:54;;;;;;;5.40;5.00;;;;;;;;;;5075780;28;20534;-54
2022/10/23 05:28:21;;;;;;;5.87;5.40;;;;;;;;;;5075571;28;21026;-53
2022/10/23 05:30:48;;;;;;;7.10;5.60;;;;;;;;;;5075636;28;20451;-55
2022/10/23 05:33:16;;;;;;;6.20;5.73;;;;;;;;;;5075609;28;20905;-53
2022/10/23 05:35:44;;;;;;;6.17;5.57;;;;;;;;;;5075278;28;20965;-54
2022/10/23 05:38:14;;;;;;;5.80;5.30;;;;;;;;;;5075315;28;20959;-51
2022/10/23 05:40:40;;;;;;;4.97;4.57;;;;;;;;;;5075564;28;20534;-53
2022/10/23 05:43:07;;;;;;;5.70;5.20;;;;;;;;;;5075443;28;20542;-55
2022/10/23 05:45:34;;;;;;;5.17;4.87;;;;;;;;;;5075330;28;20807;-55
2022/10/23 05:48:01;;;;;;;7.50;5.90;;;;;;;;;;5073861;28;20493;-54
2022/10/23 05:50:28;;;;;;;10.32;5.13;;;;;;;;;;5075108;28;20950;-52
2022/10/23 05:52:55;;;;;;;6.57;5.73;;;;;;;;;;5075411;28;20194;-52
2022/10/23 05:55:23;;;;;;;6.00;5.50;;;;;;;;;;5075263;28;20486;-54
2022/10/23 05:57:50;;;;;;;5.60;5.20;;;;;;;;;;5075051;28;20494;-51
2022/10/23 06:00:17;;;;;;;6.23;5.23;;;;;;;;;;5075103;28;20451;-54
2022/10/23 06:02:44;;;;;;;6.10;5.50;;;;;;;;;;5075089;28;20444;-56
2022/10/23 06:05:11;;;;;;;4.93;4.63;;;;;;;;;;5074849;28;20538;-56
2022/10/23 06:07:38;;;;;;;4.90;4.50;;;;;;;;;;5075164;28;20447;-54
2022/10/23 06:10:05;;;;;;;5.10;4.57;;;;;;;;;;5075008;28;20255;-51
2022/10/23 06:12:35;;;;;;;5.50;5.00;;;;;;;;;;5074928;28;20453;-52
2022/10/23 06:15:02;;;;;;;5.53;5.10;;;;;;;;;;5074858;28;20542;-54
2022/10/23 06:17:33;;;;;;;6.10;5.50;;;;;;;;;;5074533;28;20515;-56
2022/10/23 06:20:01;;;;;;;8.03;6.67;;;;;;;;;;5074925;28;20530;-52
2022/10/23 06:22:28;;;;;;;6.70;6.10;;;;;;;;;;5074692;28;20447;-54
2022/10/23 06:24:55;;;;;;;6.60;5.90;;;;;;;;;;5074754;28;20473;-52
2022/10/23 06:27:24;;;;;;;8.00;7.40;;;;;;;;;;5074533;28;20489;-54
2022/10/23 06:29:52;;;;;;;8.63;7.67;;;;;;;;;;5074562;28;20502;-56
2022/10/23 06:32:19;;;;;;;11.43;8.00;;;;;;;;;;5074307;28;20454;-55
2022/10/23 06:34:46;;;;;;;10.93;9.90;;;;;;;;;;5074609;28;20956;-54
2022/10/23 06:37:12;;;;;;;10.43;9.20;;;;;;;;;;5074234;28;20490;-53
2022/10/23 06:39:40;;;;;;;9.70;7.90;;;;;;;;;;5074171;28;20225;-51
2022/10/23 06:42:07;;;;;;;9.63;8.47;;;;;;;;;;5074287;28;20550;-52
2022/10/23 06:44:34;;;;;;;8.67;7.97;;;;;;;;;;5074100;28;20451;-55
2022/10/23 06:47:02;;;;;;;8.00;7.20;;;;;;;;;;5073769;28;20443;-55
2022/10/23 06:49:29;;;;;;;9.43;8.43;;;;;;;;;;5074214;28;20520;-54
2022/10/23 06:51:57;;;;;;;9.97;9.17;;;;;;;;;;5074048;28;20453;-54
2022/10/23 06:54:23;;;;;;;10.23;8.83;;;;;;;;;;5074026;28;20456;-52
2022/10/23 06:56:51;;;;;;;7.72;7.03;;;;;;;;;;5073765;28;20472;-53
2022/10/23 06:59:18;;;;;;;7.90;7.20;;;;;;;;;;5073359;28;20232;-51
2022/10/23 07:01:45;;;;;;;8.33;7.57;;;;;;;;;;5073879;28;20876;-55
2022/10/23 07:04:13;;;;;;;7.30;6.70;;;;;;;;;;5073863;28;20454;-55
2022/10/23 07:06:40;;;;;;;10.50;8.47;;;;;;;;;;5073500;28;20645;-56
2022/10/23 07:09:07;;;;;;;8.73;7.87;;;;;;;;;;5073699;28;20448;-53
2022/10/23 07:11:36;;;;;;;7.57;6.83;;;;;;;;;;5073629;28;20455;-53
2022/10/23 07:14:03;;;;;;;8.00;7.40;;;;;;;;;;5073543;28;20954;-54
2022/10/23 07:16:30;;;;;;;8.83;8.13;;;;;;;;;;5073410;28;20189;-54
2022/10/23 07:18:59;;;;;;;8.13;7.43;;;;;;;;;;5073523;28;20482;-53
2022/10/23 07:21:30;;;;;;;10.13;9.00;;;;;;;;;;5073551;28;20625;-52
2022/10/23 07:23:58;;;;;;;9.63;8.70;;;;;;;;;;5073482;28;20577;-52
2022/10/23 07:26:25;;;;;;;12.57;10.33;;;;;;;;;;5073175;28;20454;-52
2022/10/23 07:28:54;;;;;;;12.87;11.50;;;;;;;;;;5073394;28;20534;-53
2022/10/23 07:31:20;;;;;;;10.70;9.70;;;;;;;;;;5073333;28;20443;-56
2022/10/23 07:33:47;;;;;;;11.77;10.57;;;;;;;;;;5073280;28;20569;-50
2022/10/23 07:36:14;;;;;;;13.00;9.20;;;;;;;;;;5073258;28;20965;-55
2022/10/23 07:38:43;;;;;;;9.70;8.70;;;;;;;;;;5073061;28;20479;-53
2022/10/23 07:41:10;;;;;;;9.50;8.70;;;;;;;;;;5073143;28;20444;-56
2022/10/23 07:43:37;;;;;;;8.50;7.80;;;;;;;;;;5073198;28;20455;-55
2022/10/23 07:46:07;;;;;;;7.95;7.32;;;;;;;;;;5072963;28;20454;-56
2022/10/23 07:48:34;;;;;;;9.57;8.67;;;;;;;;;;5072907;28;20221;-54
2022/10/23 07:51:02;;;;;;;12.50;8.37;;;;;;;;;;5072979;28;20454;-56
2022/10/23 07:53:29;;;;;;;8.93;8.23;;;;;;;;;;5072769;28;20873;-56
2022/10/23 07:56:00;;;;;;;9.37;8.30;;;;;;;;;;5073006;28;20505;-51
2022/10/23 07:58:29;;;;;;;11.00;9.17;;;;;;;;;;5073027;28;20514;-52
2022/10/23 08:00:58;;;;;;;9.57;8.70;;;;;;;;;;5073008;28;20451;-56
2022/10/23 08:03:25;;;;;;;8.80;7.90;;;;;;;;;;5072846;28;20811;-56
2022/10/23 08:05:52;;;;;;;7.87;7.13;;;;;;;;;;5072675;28;20455;-57
2022/10/23 08:08:19;;;;;;;9.77;8.77;;;;;;;;;;5072965;28;20465;-54
2022/10/23 08:10:46;;;;;;;9.20;8.07;;;;;;;;;;5072204;28;20444;-53
2022/10/23 08:13:14;;;;;;;7.97;7.23;;;;;;;;;;5072876;28;20887;-53
2022/10/23 08:15:43;;;;;;;8.20;7.60;;;;;;;;;;5072701;28;20815;-55
2022/10/23 08:18:10;;;;;;;8.00;7.23;;;;;;;;;;5072526;28;20486;-55
2022/10/23 08:20:40;;;;;;;8.90;7.23;;;;;;;;;;5072647;28;20498;-55
2022/10/23 08:23:07;;;;;;;8.10;6.83;;;;;;;;;;5072775;28;20448;-54
2022/10/23 08:25:34;;;;;;;7.30;6.60;;;;;;;;;;5072694;28;20483;-55
2022/10/23 08:28:01;;;;;;;10.52;8.50;;;;;;;;;;5072527;28;20477;-56
2022/10/23 08:30:29;;;;;;;8.10;7.40;;;;;;;;;;5072574;28;20200;-54
2022/10/23 08:32:56;;;;;;;7.40;6.82;;;;;;;;;;5072600;28;20546;-56
2022/10/23 08:35:23;;;;;;;8.43;7.43;;;;;;;;;;5072448;28;20653;-54
2022/10/23 08:37:50;;;;;;;7.57;6.73;;;;;;;;;;5072609;28;20577;-55
2022/10/23 08:40:17;;;;;;;7.63;6.70;;;;;;;;;;5072533;28;20546;-51
2022/10/23 08:42:47;;;;;;;7.40;6.70;;;;;;;;;;5072595;28;20976;-53
2022/10/23 08:45:22;;;;;;;7.77;7.00;;;;;;;;;;5072444;28;20802;-54
2022/10/23 08:47:54;;;;;;;9.93;6.87;;;;;;;;;;5072243;28;20470;-53
2022/10/23 08:50:25;;;;;;;7.33;6.73;;;;;;;;;;5072538;28;20785;-55
2022/10/23 08:52:56;;;;;;;7.57;6.63;;;;;;;;;;5072469;28;20534;-56
2022/10/23 08:55:24;;;;;;;7.67;6.70;;;;;;;;;;5072342;28;20531;-53
2022/10/23 08:57:54;;;;;;;10.90;6.93;;;;;;;;;;5072158;28;20475;-53
2022/10/23 09:00:21;;;;;;;8.17;6.43;;;;;;;;;;5072465;28;20534;-56
2022/10/23 09:02:50;;;;;;;7.20;6.40;;;;;;;;;;5072532;28;20888;-53
2022/10/23 09:05:19;;;;;;;7.60;5.90;;;;;;;;;;5072309;28;20538;-53
2022/10/23 09:07:51;;;;;;;7.07;5.63;;;;;;;;;;5072188;28;20512;-55
2022/10/23 09:10:29;;;;;;;7.20;6.23;;;;;;;;;;5072081;28;20451;-55
2022/10/23 09:12:57;;;;;;;5.37;4.87;;;;;;;;;;5072394;28;20522;-55
2022/10/23 09:15:28;;;;;;;6.07;5.40;;;;;;;;;;5072258;28;20449;-54
2022/10/23 09:17:56;;;;;;;5.67;5.10;;;;;;;;;;5072097;28;20478;-54
2022/10/23 09:20:26;;;;;;;5.45;5.05;;;;;;;;;;5072090;28;20534;-54
2022/10/23 09:22:54;;;;;;;5.47;4.97;;;;;;;;;;5074157;28;20185;-54
2022/10/23 09:25:24;;;;;;;5.67;4.27;;;;;;;;;;5075705;28;20458;-53
2022/10/23 09:27:52;;;;;;;4.77;4.23;;;;;;;;;;5075637;28;20462;-53
2022/10/23 09:30:26;;;;;;;9.40;4.90;;;;;;;;;;5075433;28;20493;-56
2022/10/23 09:32:53;;;;;;;5.27;4.87;;;;;;;;;;5075598;28;20212;-54
2022/10/23 09:35:22;;;;;;;4.93;4.37;;;;;;;;;;5075417;28;20542;-55
2022/10/23 09:37:52;;;;;;;5.37;4.23;;;;;;;;;;5075366;28;20487;-55
2022/10/23 09:40:22;;;;;;;6.00;4.23;;;;;;;;;;5075528;28;20451;-54
2022/10/23 09:42:53;;;;;;;4.57;4.00;;;;;;;;;;5075477;28;20953;-55
2022/10/23 09:45:22;;;;;;;6.13;3.70;;;;;;;;;;5075213;28;20483;-56
2022/10/23 09:47:49;;;;;;;7.20;3.93;;;;;;;;;;5074948;28;20483;-55
2022/10/23 09:50:20;;;;;;;4.33;3.43;;;;;;;;;;5075130;28;20538;-54
2022/10/23 09:52:51;;;;;;;6.07;2.93;;;;;;;;;;5075288;28;20479;-53
2022/10/23 09:55:22;;;;;;;5.10;3.37;;;;;;;;;;5075208;28;20443;-54
2022/10/23 09:57:49;;;;;;;3.60;3.20;;;;;;;;;;5075167;28;20467;-55
2022/10/23 10:00:18;;;;;;;3.30;3.00;;;;;;;;;;5075036;28;20448;-53
2022/10/23 10:02:55;;;;;;;3.23;2.70;;;;;;;;;;5074842;28;20547;-56
2022/10/23 10:05:23;;;;;;;5.33;2.80;;;;;;;;;;5075042;28;20534;-54
2022/10/23 10:07:56;;;;;;;4.22;2.85;;;;;;;;;;5074836;28;20455;-55
2022/10/23 10:10:24;;;;;;;3.43;3.13;;;;;;;;;;5074900;28;20645;-56
2022/10/23 10:12:55;;;;;;;4.87;3.00;;;;;;;;;;5074711;28;20448;-53
2022/10/23 10:15:26;;;;;;;3.17;2.90;;;;;;;;;;5074617;28;20444;-56
2022/10/23 10:17:57;;;;;;;5.87;3.00;;;;;;;;;;5074795;28;20475;-56
2022/10/23 10:20:33;;;;;;;5.00;2.80;;;;;;;;;;5074700;28;20443;-55
2022/10/23 10:23:03;;;;;;;4.20;3.00;;;;;;;;;;5075037;28;20457;-56
2022/10/23 10:25:34;;;;;;;3.23;2.90;;;;;;;;;;5074246;28;20469;-52
2022/10/23 10:28:08;;;;;;;4.00;3.10;;;;;;;;;;5074692;28;20459;-56
2022/10/23 10:30:38;;;;;;;3.75;2.83;;;;;;;;;;5074536;28;20451;-54
2022/10/23 10:33:09;;;;;;;7.10;3.03;;;;;;;;;;5074431;28;20189;-56
2022/10/23 10:35:39;;;;;;;3.60;2.73;;;;;;;;;;5074172;28;20457;-53
2022/10/23 10:38:15;;;;;;;2.83;2.50;;;;;;;;;;5074246;28;20467;-55
2022/10/23 10:40:45;;;;;;;2.53;2.33;;;;;;;;;;5074385;28;20451;-53
2022/10/23 10:43:19;;;;;;;3.10;2.60;;;;;;;;;;5074385;28;20469;-55
2022/10/23 10:45:47;;;;;;;5.27;2.67;;;;;;;;;;5074118;28;20453;-54
2022/10/23 10:48:23;;;;;;;3.00;2.20;;;;;;;;;;5073878;28;20471;-55
2022/10/23 10:50:53;;;;;;;3.17;2.43;;;;;;;;;;5074204;28;20850;-55
2022/10/23 10:53:22;;;;;;;4.93;2.30;;;;;;;;;;5073958;28;20453;-54
2022/10/23 10:55:52;;;;;;;5.00;2.40;;;;;;;;;;5073897;28;20454;-56
2022/10/23 10:58:22;;;;;;;3.43;2.17;;;;;;;;;;5073844;28;20479;-51
2022/10/23 11:00:51;;;;;;;3.23;2.07;;;;;;;;;;5073639;28;20463;-56
2022/10/23 11:03:25;;;;;;;8.43;2.50;;;;;;;;;;5073479;28;20491;-56
2022/10/23 11:05:53;;;;;;;4.80;2.50;;;;;;;;;;5073671;28;20459;-56
2022/10/23 11:08:26;;;;;;;3.83;2.22;;;;;;;;;;5073906;28;20448;-55
2022/10/23 11:10:57;;;;;;;5.57;2.50;;;;;;;;;;5073571;28;20251;-54
2022/10/23 11:13:26;;;;;;;5.60;2.17;;;;;;;;;;5073483;28;20443;-55
2022/10/23 11:15:57;;;;;;;5.30;2.10;;;;;;;;;;5073501;28;20449;-55
2022/10/23 11:18:26;;;;;;;17.00;3.43;;;;;;;;;;5073418;28;20482;-55
2022/10/23 11:20:58;;;;;;;3.53;1.60;;;;;;;;;;5073439;28;20454;-54
2022/10/23 11:23:44;;;;;;;2.77;1.87;;;;;;;;;;5073371;28;20542;-56
2022/10/23 11:26:20;;;;;;;3.50;1.50;;;;;;;;;;5073327;28;20436;-55
2022/10/23 11:28:58;;;;;;;7.67;2.20;;;;;;;;;;5073434;28;20478;-54
2022/10/23 11:31:28;;;;;;;2.70;1.50;;;;;;;;;;5073394;28;20893;-56
2022/10/23 11:34:01;;;;;;;3.00;1.60;;;;;;;;;;5073195;28;20965;-56
2022/10/23 11:36:41;;;;;;;1.77;1.37;;;;;;;;;;5073028;28;20999;-55
2022/10/23 11:39:16;;;;;;;3.97;2.07;;;;;;;;;;5073214;28;20479;-55
2022/10/23 11:41:49;;;;;;;1.77;1.33;;;;;;;;;;5073259;28;20938;-54
2022/10/23 11:44:27;;;;;;;4.03;1.73;;;;;;;;;;5073118;28;20509;-55
2022/10/23 11:47:01;;;;;;;4.07;3.07;;;;;;;;;;5071836;28;20454;-54
2022/10/23 11:49:28;;;;;;;2.70;1.80;;;;;;;;;;5073168;28;20446;-54
2022/10/23 11:52:02;;;;;;;2.10;1.50;;;;;;;;;;5073082;28;20483;-55
2022/10/23 11:54:29;;;;;;;6.60;1.87;;;;;;;;;;5072872;28;20538;-55
2022/10/23 11:57:05;;;;;;;1.97;1.60;;;;;;;;;;5072843;28;20451;-55
2022/10/23 11:59:35;;;;;;;1.73;1.37;;;;;;;;;;5072835;28;20494;-55
2022/10/23 12:02:04;;;;;;;3.17;1.60;;;;;;;;;;5073012;28;20451;-55
2022/10/23 12:04:39;;;;;;;2.33;1.40;;;;;;;;;;5072906;28;20539;-56
2022/10/23 12:07:15;;;;;;;3.83;1.70;;;;;;;;;;5072523;28;20458;-53
2022/10/23 12:09:44;;;;;;;2.07;1.40;;;;;;;;;;5072968;28;20538;-56
2022/10/23 12:12:28;;;;;;;3.53;1.60;;;;;;;;;;5073337;28;20458;-55
2022/10/23 12:15:07;;;;;;;4.57;1.57;;;;;;;;;;5073275;28;20530;-53
2022/10/23 12:17:36;;;;;;;3.10;1.63;;;;;;;;;;5072768;28;20458;-56
2022/10/23 12:20:13;;;;;;;3.00;1.37;;;;;;;;;;5072392;28;20918;-55
2022/10/23 12:22:43;;;;;;;2.30;1.60;;;;;;;;;;5072806;28;20533;-56
2022/10/23 12:25:13;;;;;;;3.50;1.53;;;;;;;;;;5072697;28;20455;-56
2022/10/23 12:27:45;;;;;;;4.63;1.55;;;;;;;;;;5072832;28;20882;-56
2022/10/23 12:30:15;;;;;;;3.60;1.60;;;;;;;;;;5072696;28;20514;-57
2022/10/23 12:32:49;;;;;;;4.57;1.45;;;;;;;;;;5072626;28;20575;-56
2022/10/23 12:35:24;;;;;;;7.50;1.60;;;;;;;;;;5072574;28;20279;-57
2022/10/23 12:37:57;;;;;;;4.73;1.90;;;;;;;;;;5072683;28;20466;-56
2022/10/23 12:40:28;;;;;;;1.43;1.33;;;;;;;;;;5072367;28;20482;-54
2022/10/23 12:42:57;;;;;;;2.20;1.90;;;;;;;;;;5072327;28;20520;-56
2022/10/23 12:45:25;;;;;;;2.43;1.40;;;;;;;;;;5072561;28;20447;-56
2022/10/23 12:47:52;;;;;;;2.50;1.40;;;;;;;;;;5072278;28;20839;-56
2022/10/23 12:50:20;;;;;;;3.50;1.33;;;;;;;;;;5072583;28;20451;-55
2022/10/23 12:52:55;;;;;;;4.53;1.63;;;;;;;;;;5072417;28;20444;-54
2022/10/23 12:55:22;;;;;;;1.75;1.40;;;;;;;;;;5072211;28;20493;-55
2022/10/23 12:57:49;;;;;;;6.33;1.50;;;;;;;;;;5074435;28;20243;-56
2022/10/23 13:00:19;;;;;;;4.33;1.37;;;;;;;;;;5076246;28;20487;-56
2022/10/23 13:02:46;;;;;;;3.10;2.10;;;;;;;;;;5076157;28;20816;-57
2022/10/23 13:05:15;;;;;;;1.67;1.20;;;;;;;;;;5076123;28;20447;-56
2022/10/23 13:07:43;;;;;;;4.60;1.30;;;;;;;;;;5076011;28;20447;-56
2022/10/23 13:10:14;;;;;;;3.40;1.80;;;;;;;;;;5075890;28;20444;-55
2022/10/23 13:12:41;;;;;;;1.23;1.10;;;;;;;;;;5076371;28;20192;-55
2022/10/23 13:15:16;;;;;;;3.50;1.60;;;;;;;;;;5075940;28;20447;-56
2022/10/23 13:17:45;;;;;;;3.53;1.80;;;;;;;;;;5075883;28;20446;-56
2022/10/23 13:20:20;;;;;;;1.63;1.23;;;;;;;;;;5075751;28;20577;-54
2022/10/23 13:22:48;;;;;;;4.07;1.20;;;;;;;;;;5075760;28;20499;-55
2022/10/23 13:25:23;;;;;;;2.77;1.57;;;;;;;;;;5075566;28;20652;-56
2022/10/23 13:27:50;;;;;;;2.60;1.53;;;;;;;;;;5075778;28;20443;-55
2022/10/23 13:30:31;;;;;;;5.53;2.17;;;;;;;;;;5075541;28;20453;-56
2022/10/23 13:32:59;;;;;;;2.03;1.80;;;;;;;;;;5075482;28;20911;-55
2022/10/23 13:35:26;;;;;;;3.53;1.10;;;;;;;;;;5075606;28;20513;-56
2022/10/23 13:37:53;;;;;;;3.53;1.55;;;;;;;;;;5075607;28;20487;-56
2022/10/23 13:40:22;;;;;;;3.65;1.63;;;;;;;;;;5075380;28;20249;-54
2022/10/23 13:42:49;;;;;;;3.60;1.50;;;;;;;;;;5075244;28;20203;-55
2022/10/23 13:45:19;;;;;;;11.60;2.05;;;;;;;;;;5075217;28;20451;-55
2022/10/23 13:47:45;;;;;;;6.63;1.90;;;;;;;;;;5075046;28;20214;-55
2022/10/23 13:50:14;;;;;;;3.05;1.80;;;;;;;;;;5075338;28;20462;-57
2022/10/23 13:52:41;;;;;;;15.20;1.93;;;;;;;;;;5075106;28;20281;-54
2022/10/23 13:55:14;;;;;;;4.03;1.80;;;;;;;;;;5075124;28;20502;-54
2022/10/23 13:57:41;;;;;;;2.57;1.70;;;;;;;;;;5075214;28;20806;-55
2022/10/23 14:00:10;;;;;;;5.10;1.60;;;;;;;;;;5074993;28;20889;-56
2022/10/23 14:02:36;;;;;;;1.90;1.70;;;;;;;;;;5075025;28;20463;-56
2022/10/23 14:05:03;;;;;;;3.03;1.80;;;;;;;;;;5075049;28;20468;-54
2022/10/23 14:07:32;;;;;;;8.53;2.27;;;;;;;;;;5075063;28;20551;-55
2022/10/23 14:09:59;;;;;;;2.83;1.67;;;;;;;;;;5073908;28;20447;-55
2022/10/23 14:12:27;;;;;;;4.90;1.80;;;;;;;;;;5074881;28;20451;-55
2022/10/23 14:14:54;;;;;;;2.10;1.73;;;;;;;;;;5074702;28;20814;-56
2022/10/23 14:17:21;;;;;;;2.17;1.40;;;;;;;;;;5074811;28;20454;-55
2022/10/23 14:19:49;;;;;;;6.50;1.90;;;;;;;;;;5074750;28;20483;-54
2022/10/23 14:22:16;;;;;;;3.87;1.97;;;;;;;;;;5074589;28;20810;-55
2022/10/23 14:24:45;;;;;;;1.90;1.80;;;;;;;;;;5074504;28;20971;-51
2022/10/23 14:27:12;;;;;;;4.20;2.13;;;;;;;;;;5074365;28;20806;-52
2022/10/23 14:29:40;;;;;;;3.80;2.20;;;;;;;;;;5074667;28;20509;-54
2022/10/23 14:32:07;;;;;;;4.37;2.00;;;;;;;;;;5074594;28;20600;-54
2022/10/23 14:34:34;;;;;;;7.40;1.80;;;;;;;;;;5074431;28;20447;-55
2022/10/23 14:37:02;;;;;;;2.47;2.20;;;;;;;;;;5074365;28;20447;-55
2022/10/23 14:39:29;;;;;;;3.33;1.60;;;;;;;;;;5074255;28;20482;-54
2022/10/23 14:41:58;;;;;;;2.77;1.80;;;;;;;;;;5074151;28;20540;-56
2022/10/23 14:44:25;;;;;;;2.83;1.83;;;;;;;;;;5074315;28;20447;-52
2022/10/23 14:46:52;;;;;;;3.10;2.20;;;;;;;;;;5073950;28;20538;-55
2022/10/23 14:49:19;;;;;;;2.60;2.00;;;;;;;;;;5074176;28;20452;-56
2022/10/23 14:51:46;;;;;;;3.17;1.93;;;;;;;;;;5074010;28;20211;-56
2022/10/23 14:54:14;;;;;;;3.50;2.30;;;;;;;;;;5073978;28;20536;-56